createdAt,value
2024-01-07T00:01:10.899Z,0.73
2024-01-07T00:03:38.180Z,0.70
2024-01-07T00:06:05.546Z,0.80
2024-01-07T00:08:32.531Z,0.60
2024-01-07T00:11:00.455Z,0.57
2024-01-07T00:13:28.350Z,0.80
2024-01-07T00:15:56.871Z,0.93
2024-01-07T00:18:25.598Z,0.90
2024-01-07T00:20:52.753Z,0.90
2024-01-07T00:23:19.835Z,0.60
2024-01-07T00:25:46.873Z,0.57
2024-01-07T00:28:14.172Z,0.85
2024-01-07T00:30:41.239Z,0.68
2024-01-07T00:33:08.309Z,0.73
2024-01-07T00:35:35.341Z,0.55
2024-01-07T00:38:02.309Z,0.95
2024-01-07T00:40:29.447Z,0.60
2024-01-07T00:42:56.558Z,0.82
2024-01-07T00:45:23.619Z,0.60
2024-01-07T00:47:50.718Z,0.70
2024-01-07T00:50:17.734Z,0.50
2024-01-07T00:52:45.609Z,0.50
2024-01-07T00:55:12.641Z,0.70
2024-01-07T00:57:39.923Z,1.13
2024-01-07T01:00:07.997Z,0.50
2024-01-07T01:02:35.458Z,0.60
2024-01-07T01:05:02.976Z,0.63
2024-01-07T01:07:29.996Z,0.50
2024-01-07T01:09:56.974Z,0.50
2024-01-07T01:12:23.986Z,0.60
2024-01-07T01:14:51.128Z,0.85
2024-01-07T01:19:53.564Z,0.90
2024-01-07T01:22:20.574Z,0.70
2024-01-07T01:24:47.674Z,0.70
2024-01-07T01:27:15.854Z,0.90
2024-01-07T01:29:42.978Z,0.65
2024-01-07T01:32:10.089Z,0.70
2024-01-07T01:34:37.756Z,0.70
2024-01-07T01:37:04.976Z,0.57
2024-01-07T01:39:32.031Z,0.50
2024-01-07T01:41:59.685Z,0.60
2024-01-07T01:44:29.125Z,0.73
2024-01-07T01:46:57.506Z,0.80
2024-01-07T01:49:25.325Z,0.70
2024-01-07T01:51:54.310Z,0.80
2024-01-07T01:54:22.806Z,0.70
2024-01-07T01:56:50.805Z,0.95
2024-01-07T01:59:18.727Z,0.90
2024-01-07T02:01:46.176Z,1.38
2024-01-07T02:04:13.438Z,0.70
2024-01-07T02:06:40.482Z,0.77
2024-01-07T02:09:07.608Z,0.60
2024-01-07T02:11:35.142Z,0.57
2024-01-07T02:14:02.099Z,0.70
2024-01-07T02:16:32.086Z,0.65
2024-01-07T02:19:01.850Z,0.55
2024-01-07T02:21:31.556Z,0.50
2024-01-07T02:24:00.625Z,0.65
2024-01-07T02:26:30.384Z,0.70
2024-01-07T02:28:57.804Z,1.20
2024-01-07T02:31:24.823Z,0.80
2024-01-07T02:33:51.928Z,0.43
2024-01-07T02:36:19.113Z,1.00
2024-01-07T02:38:46.085Z,0.70
2024-01-07T02:41:13.239Z,1.20
2024-01-07T02:43:40.235Z,0.90
2024-01-07T02:46:07.273Z,0.70
2024-01-07T02:48:34.425Z,0.95
2024-01-07T02:51:04.579Z,0.60
2024-01-07T02:53:31.540Z,0.50
2024-01-07T02:55:59.442Z,0.93
2024-01-07T02:58:26.634Z,0.93
2024-01-07T03:00:54.138Z,0.73
2024-01-07T03:03:21.373Z,0.80
2024-01-07T03:05:48.601Z,0.80
2024-01-07T03:08:15.563Z,1.35
2024-01-07T03:10:42.904Z,0.60
2024-01-07T03:13:09.990Z,0.80
2024-01-07T03:15:37.220Z,0.50
2024-01-07T03:18:04.604Z,0.57
2024-01-07T03:20:31.577Z,0.75
2024-01-07T03:22:59.241Z,1.95
2024-01-07T03:25:26.233Z,0.70
2024-01-07T03:27:53.241Z,0.68
2024-01-07T03:30:20.895Z,0.77
2024-01-07T03:32:48.048Z,0.70
2024-01-07T03:35:15.936Z,0.85
2024-01-07T03:37:42.965Z,0.75
2024-01-07T03:40:13.438Z,0.90
2024-01-07T03:42:40.645Z,1.15
2024-01-07T03:45:07.795Z,0.80
2024-01-07T03:47:34.801Z,1.08
2024-01-07T03:50:01.861Z,1.00
2024-01-07T03:52:29.903Z,0.90
2024-01-07T03:54:57.082Z,0.80
2024-01-07T03:57:24.181Z,1.15
2024-01-07T03:59:51.202Z,0.77
2024-01-07T04:02:18.325Z,0.65
2024-01-07T04:04:45.543Z,1.17
2024-01-07T04:07:12.792Z,0.63
2024-01-07T04:09:39.828Z,0.65
2024-01-07T04:12:07.595Z,1.13
2024-01-07T04:14:35.167Z,0.95
2024-01-07T04:17:02.281Z,0.68
2024-01-07T04:19:29.401Z,0.80
2024-01-07T04:21:56.532Z,0.65
2024-01-07T04:24:23.593Z,1.00
2024-01-07T04:26:50.603Z,1.42
2024-01-07T04:29:17.558Z,0.60
2024-01-07T04:31:46.733Z,0.70
2024-01-07T04:34:14.043Z,0.80
2024-01-07T04:36:41.133Z,0.90
2024-01-07T04:39:08.167Z,0.75
2024-01-07T04:41:35.318Z,0.80
2024-01-07T04:44:02.370Z,0.75
2024-01-07T04:46:29.421Z,0.85
2024-01-07T04:48:57.066Z,1.50
2024-01-07T04:51:24.054Z,0.68
2024-01-07T04:53:51.094Z,1.08
2024-01-07T04:56:18.092Z,1.10
2024-01-07T04:58:45.039Z,0.80
2024-01-07T05:01:12.099Z,0.70
2024-01-07T05:03:39.336Z,1.65
2024-01-07T05:06:06.741Z,1.52
2024-01-07T05:08:33.943Z,1.10
2024-01-07T05:11:00.948Z,1.10
2024-01-07T05:13:27.868Z,0.93
2024-01-07T05:15:55.347Z,0.80
2024-01-07T05:18:26.088Z,1.17
2024-01-07T05:20:53.690Z,0.75
2024-01-07T05:23:20.773Z,0.73
2024-01-07T05:25:48.028Z,0.68
2024-01-07T05:28:15.442Z,0.55
2024-01-07T05:30:45.427Z,0.60
2024-01-07T05:33:12.766Z,0.80
2024-01-07T05:35:39.778Z,0.52
2024-01-07T05:38:06.755Z,0.80
2024-01-07T05:40:33.738Z,0.75
2024-01-07T05:43:00.696Z,0.80
2024-01-07T05:45:27.694Z,0.73
2024-01-07T05:47:54.697Z,0.60
2024-01-07T05:50:21.870Z,0.90
2024-01-07T05:52:48.916Z,0.70
2024-01-07T05:55:16.282Z,0.95
2024-01-07T05:57:44.814Z,0.60
2024-01-07T06:00:13.597Z,0.82
2024-01-07T06:02:41.602Z,0.73
2024-01-07T06:05:09.145Z,0.95
2024-01-07T06:07:36.265Z,0.73
2024-01-07T06:10:03.654Z,0.90
2024-01-07T06:12:30.770Z,0.68
2024-01-07T06:14:57.879Z,1.10
2024-01-07T06:17:25.115Z,0.70
2024-01-07T06:19:52.165Z,0.98
2024-01-07T06:22:19.275Z,0.65
2024-01-07T06:24:46.692Z,1.00
2024-01-07T06:27:14.912Z,0.88
2024-01-07T06:29:41.840Z,1.15
2024-01-07T06:32:08.840Z,1.23
2024-01-07T06:34:35.828Z,0.80
2024-01-07T06:37:03.211Z,0.80
2024-01-07T06:39:30.175Z,1.05
2024-01-07T06:41:57.204Z,0.73
2024-01-07T06:44:24.165Z,0.80
2024-01-07T06:46:51.259Z,0.82
2024-01-07T06:49:18.307Z,0.60
2024-01-07T06:51:46.884Z,0.60
2024-01-07T06:54:15.182Z,0.68
2024-01-07T06:56:42.405Z,0.40
2024-01-07T06:59:09.671Z,0.70
2024-01-07T07:01:36.856Z,0.85
2024-01-07T07:04:04.149Z,1.17
2024-01-07T07:06:31.266Z,0.90
2024-01-07T07:08:58.222Z,0.50
2024-01-07T07:11:26.292Z,0.70
2024-01-07T07:13:53.281Z,0.93
2024-01-07T07:16:20.209Z,1.20
2024-01-07T07:18:47.486Z,0.85
2024-01-07T07:21:14.512Z,0.93
2024-01-07T07:23:41.481Z,1.20
2024-01-07T07:26:09.397Z,0.70
2024-01-07T07:28:36.355Z,0.80
2024-01-07T07:31:03.619Z,0.65
2024-01-07T07:33:30.802Z,0.60
2024-01-07T07:35:57.878Z,1.02
2024-01-07T07:38:24.843Z,1.00
2024-01-07T07:40:54.321Z,0.88
2024-01-07T07:43:24.469Z,0.90
2024-01-07T07:45:52.285Z,0.70
2024-01-07T07:48:22.367Z,1.88
2024-01-07T07:50:50.816Z,1.05
2024-01-07T07:53:18.001Z,1.02
2024-01-07T07:55:45.524Z,0.90
2024-01-07T07:58:12.650Z,0.95
2024-01-07T08:00:39.935Z,0.82
2024-01-07T08:03:07.180Z,1.27
2024-01-07T08:05:34.293Z,1.10
2024-01-07T08:08:01.376Z,0.73
2024-01-07T08:10:29.850Z,0.90
2024-01-07T08:12:57.100Z,0.77
2024-01-07T08:15:24.093Z,1.25
2024-01-07T08:17:52.908Z,0.98
2024-01-07T08:20:20.766Z,0.60
2024-01-07T08:22:47.797Z,0.90
2024-01-07T08:25:14.898Z,0.73
2024-01-07T08:27:45.369Z,0.80
2024-01-07T08:30:15.098Z,0.98
2024-01-07T08:32:42.844Z,1.90
2024-01-07T08:35:10.643Z,0.80
2024-01-07T08:37:37.729Z,0.80
2024-01-07T08:40:07.334Z,0.98
2024-01-07T08:42:34.741Z,1.00
2024-01-07T08:45:02.293Z,1.10
2024-01-07T08:47:29.848Z,1.52
2024-01-07T08:49:57.174Z,0.60
2024-01-07T08:52:25.774Z,1.10
2024-01-07T08:54:52.941Z,0.80
2024-01-07T08:57:20.062Z,0.95
2024-01-07T08:59:47.261Z,1.00
2024-01-07T09:02:15.223Z,0.80
2024-01-07T09:04:42.488Z,2.10
2024-01-07T09:07:09.653Z,0.70
2024-01-07T09:09:36.857Z,0.80
2024-01-07T09:12:05.027Z,0.68
2024-01-07T09:14:32.971Z,0.77
2024-01-07T09:17:00.001Z,0.60
2024-01-07T09:19:27.304Z,0.73
2024-01-07T09:21:54.382Z,0.65
2024-01-07T09:24:21.435Z,0.88
2024-01-07T09:26:48.611Z,0.93
2024-01-07T09:29:15.635Z,1.13
2024-01-07T09:31:42.745Z,0.80
2024-01-07T09:34:09.999Z,1.15
2024-01-07T09:36:37.907Z,1.63
2024-01-07T09:39:07.155Z,0.70
2024-01-07T09:41:34.992Z,0.75
2024-01-07T09:44:02.547Z,1.00
2024-01-07T09:46:31.778Z,0.90
2024-01-07T09:48:59.065Z,0.80
2024-01-07T09:51:29.337Z,1.00
2024-01-07T09:54:03.241Z,0.60
2024-01-07T09:56:48.838Z,0.82
2024-01-07T09:59:17.833Z,0.70
2024-01-07T10:01:48.497Z,0.60
2024-01-07T10:04:15.832Z,0.90
2024-01-07T10:06:46.943Z,0.90
2024-01-07T10:09:14.484Z,0.85
2024-01-07T10:11:41.642Z,0.57
2024-01-07T10:14:08.805Z,0.98
2024-01-07T10:16:36.076Z,0.65
2024-01-07T10:19:03.636Z,0.80
2024-01-07T10:21:30.933Z,0.77
2024-01-07T10:24:14.506Z,1.42
2024-01-07T10:26:42.364Z,0.80
2024-01-07T10:29:09.761Z,0.65
2024-01-07T10:31:40.824Z,0.60
2024-01-07T10:34:11.804Z,0.70
2024-01-07T10:36:43.978Z,1.33
2024-01-07T10:39:17.099Z,0.70
2024-01-07T10:41:45.282Z,1.23
2024-01-07T10:44:12.490Z,0.77
2024-01-07T10:46:40.714Z,0.60
2024-01-07T10:49:21.362Z,0.60
2024-01-07T10:52:01.255Z,0.85
2024-01-07T10:54:31.170Z,0.60
2024-01-07T10:57:10.766Z,0.50
2024-01-07T10:59:38.740Z,0.60
2024-01-07T11:02:05.873Z,1.55
2024-01-07T11:04:53.129Z,1.33
2024-01-07T11:07:45.543Z,0.70
2024-01-07T11:10:21.241Z,0.50
2024-01-07T11:13:01.334Z,0.60
2024-01-07T11:15:59.084Z,0.70
2024-01-07T11:18:32.729Z,0.50
2024-01-07T11:21:04.524Z,0.63
2024-01-07T11:23:41.044Z,0.93
2024-01-07T11:26:10.969Z,0.50
2024-01-07T11:28:44.907Z,0.45
2024-01-07T11:31:12.404Z,0.60
2024-01-07T11:33:39.548Z,0.60
2024-01-07T11:36:07.070Z,0.52
2024-01-07T11:38:36.829Z,1.00
2024-01-07T11:41:06.654Z,0.88
2024-01-07T11:43:36.986Z,0.93
2024-01-07T11:46:04.949Z,0.75
2024-01-07T11:48:32.138Z,0.60
2024-01-07T11:50:59.452Z,0.88
2024-01-07T11:53:26.574Z,1.58
2024-01-07T11:55:54.043Z,0.75
2024-01-07T11:58:21.146Z,0.70
2024-01-07T12:00:48.304Z,0.70
2024-01-07T12:03:16.548Z,0.75
2024-01-07T12:05:44.739Z,1.20
2024-01-07T12:08:12.039Z,0.65
2024-01-07T12:10:39.267Z,0.40
2024-01-07T12:13:07.082Z,0.77
2024-01-07T12:15:34.369Z,0.90
2024-01-07T12:18:03.060Z,0.70
2024-01-07T12:20:30.706Z,0.60
2024-01-07T12:22:58.739Z,0.60
2024-01-07T12:25:25.938Z,0.70
2024-01-07T12:27:56.078Z,0.75
2024-01-07T12:30:25.318Z,0.85
2024-01-07T12:32:56.464Z,0.70
2024-01-07T12:35:27.703Z,0.80
2024-01-07T12:37:54.808Z,0.65
2024-01-07T12:40:22.099Z,0.65
2024-01-07T12:42:50.612Z,0.70
2024-01-07T12:45:17.994Z,0.60
2024-01-07T12:47:45.606Z,0.80
2024-01-07T12:50:13.062Z,0.57
2024-01-07T12:52:41.568Z,0.80
2024-01-07T12:55:09.224Z,0.90
2024-01-07T12:57:36.432Z,0.90
2024-01-07T13:00:07.672Z,0.80
2024-01-07T13:02:35.807Z,0.90
2024-01-07T13:05:04.642Z,0.68
2024-01-07T13:07:32.010Z,0.95
2024-01-07T13:09:59.104Z,0.70
2024-01-07T13:12:36.805Z,0.90
2024-01-07T13:15:11.879Z,0.90
2024-01-07T13:17:39.030Z,1.40
2024-01-07T13:20:08.044Z,0.80
2024-01-07T13:22:35.922Z,0.85
2024-01-07T13:25:03.072Z,0.70
2024-01-07T13:27:31.240Z,0.90
2024-01-07T13:30:00.428Z,0.70
2024-01-07T13:32:27.505Z,0.98
2024-01-07T13:34:54.627Z,0.82
2024-01-07T13:37:21.767Z,0.60
2024-01-07T13:39:51.144Z,1.20
2024-01-07T13:42:18.244Z,0.85
2024-01-07T13:44:48.129Z,1.00
2024-01-07T13:47:15.658Z,0.65
2024-01-07T13:49:43.089Z,1.08
2024-01-07T13:52:12.498Z,0.50
2024-01-07T13:54:42.219Z,0.80
2024-01-07T13:57:09.758Z,0.50
2024-01-07T13:59:37.621Z,0.93
2024-01-07T14:02:06.746Z,0.90
2024-01-07T14:04:34.164Z,0.88
2024-01-07T14:07:01.582Z,0.90
2024-01-07T14:09:33.029Z,1.00
2024-01-07T14:12:00.749Z,0.90
2024-01-07T14:14:28.154Z,0.70
2024-01-07T14:16:55.313Z,0.73
2024-01-07T14:19:23.502Z,0.88
2024-01-07T14:21:54.800Z,1.08
2024-01-07T14:24:21.948Z,0.90
2024-01-07T14:26:48.988Z,0.63
2024-01-07T14:29:18.036Z,0.50
2024-01-07T14:31:47.445Z,0.80
2024-01-07T14:34:14.930Z,0.70
2024-01-07T14:36:45.339Z,0.60
2024-01-07T14:39:14.856Z,0.90
2024-01-07T14:41:42.197Z,0.70
2024-01-07T14:44:12.411Z,0.77
2024-01-07T14:46:40.194Z,0.82
2024-01-07T14:49:08.552Z,0.98
2024-01-07T14:51:35.988Z,0.88
2024-01-07T14:54:03.023Z,1.17
2024-01-07T14:56:30.192Z,0.77
2024-01-07T14:58:57.219Z,1.33
2024-01-07T15:01:25.573Z,1.73
2024-01-07T15:03:52.917Z,1.23
2024-01-07T15:06:20.075Z,1.30
2024-01-07T15:08:48.867Z,1.50
2024-01-07T15:11:17.866Z,1.50
2024-01-07T15:13:45.283Z,1.02
2024-01-07T15:16:12.540Z,1.83
2024-01-07T15:18:39.855Z,1.77
2024-01-07T15:21:07.280Z,1.20
2024-01-07T15:23:34.357Z,1.15
2024-01-07T15:26:01.769Z,1.00
2024-01-07T15:28:30.152Z,1.10
2024-01-07T15:30:57.497Z,0.98
2024-01-07T15:33:24.744Z,1.25
2024-01-07T15:35:52.066Z,1.15
2024-01-07T15:38:19.531Z,0.88
2024-01-07T15:40:46.875Z,0.90
2024-01-07T15:43:14.489Z,0.88
2024-01-07T15:45:41.695Z,0.68
2024-01-07T15:48:09.187Z,0.77
2024-01-07T15:50:36.770Z,0.77
2024-01-07T15:53:06.656Z,1.00
2024-01-07T15:55:36.401Z,1.33
2024-01-07T15:58:04.092Z,1.55
2024-01-07T16:00:31.612Z,1.10
2024-01-07T16:03:00.645Z,1.50
2024-01-07T16:05:29.252Z,0.90
2024-01-07T16:07:56.449Z,0.88
2024-01-07T16:10:23.848Z,0.85
2024-01-07T16:12:51.153Z,1.20
2024-01-07T16:15:18.552Z,1.25
2024-01-07T16:17:45.972Z,0.85
2024-01-07T16:20:14.269Z,1.00
2024-01-07T16:22:41.661Z,1.85
2024-01-07T16:25:09.387Z,1.60
2024-01-07T16:27:37.041Z,1.80
2024-01-07T16:30:05.447Z,1.90
2024-01-07T16:32:32.751Z,2.92
2024-01-07T16:35:00.179Z,2.42
2024-01-07T16:37:27.459Z,2.55
2024-01-07T16:39:54.765Z,2.45
2024-01-07T16:42:22.177Z,1.70
2024-01-07T16:44:49.200Z,1.77
2024-01-07T16:47:16.484Z,1.75
2024-01-07T16:52:14.168Z,1.40
2024-01-07T16:54:42.414Z,1.50
2024-01-07T16:57:09.651Z,1.25
2024-01-07T16:59:36.898Z,1.45
2024-01-07T17:02:04.205Z,1.60
2024-01-07T17:04:31.300Z,1.60
2024-01-07T17:06:58.430Z,2.13
2024-01-07T17:09:25.399Z,1.80
2024-01-07T17:11:54.145Z,1.70
2024-01-07T17:14:21.205Z,1.60
2024-01-07T17:16:48.527Z,1.77
2024-01-07T17:19:15.768Z,1.48
2024-01-07T17:21:44.760Z,1.80
2024-01-07T17:24:12.454Z,1.50
2024-01-07T17:26:39.905Z,1.95
2024-01-07T17:29:07.576Z,1.88
2024-01-07T17:31:34.575Z,1.90
2024-01-07T17:34:01.703Z,1.65
2024-01-07T17:36:31.350Z,1.60
2024-01-07T17:38:58.295Z,1.50
2024-01-07T17:41:27.509Z,1.80
2024-01-07T17:43:54.778Z,2.85
2024-01-07T17:46:21.910Z,2.10
2024-01-07T17:48:49.000Z,1.90
2024-01-07T17:51:21.272Z,2.53
2024-01-07T17:53:48.751Z,2.33
2024-01-07T17:56:20.458Z,1.88
2024-01-07T17:58:50.570Z,1.77
2024-01-07T18:01:17.727Z,1.42
2024-01-07T18:03:44.863Z,1.50
2024-01-07T18:06:12.021Z,1.23
2024-01-07T18:08:46.618Z,1.65
2024-01-07T18:11:17.368Z,1.30
2024-01-07T18:13:44.398Z,1.30
2024-01-07T18:16:13.957Z,1.67
2024-01-07T18:18:41.196Z,1.52
2024-01-07T18:21:08.422Z,1.40
2024-01-07T18:23:35.427Z,1.42
2024-01-07T18:26:02.469Z,2.33
2024-01-07T18:28:29.442Z,1.70
2024-01-07T18:30:56.480Z,1.38
2024-01-07T18:33:25.320Z,1.75
2024-01-07T18:35:52.452Z,1.75
2024-01-07T18:38:19.547Z,1.60
2024-01-07T18:40:47.292Z,1.60
2024-01-07T18:43:14.231Z,1.95
2024-01-07T18:45:41.170Z,1.80
2024-01-07T18:48:08.389Z,1.33
2024-01-07T18:50:35.488Z,1.17
2024-01-07T18:53:02.615Z,1.45
2024-01-07T18:55:30.076Z,1.92
2024-01-07T18:57:57.044Z,1.20
2024-01-07T19:00:24.004Z,1.35
2024-01-07T19:02:51.167Z,1.45
2024-01-07T19:05:19.312Z,1.40
2024-01-07T19:07:46.461Z,3.05
2024-01-07T19:10:13.722Z,1.90
2024-01-07T19:12:40.698Z,1.88
2024-01-07T19:15:07.993Z,1.35
2024-01-07T19:17:35.886Z,1.40
2024-01-07T19:20:03.860Z,1.25
2024-01-07T19:22:30.969Z,1.33
2024-01-07T19:24:57.958Z,1.40
2024-01-07T19:27:24.992Z,1.30
2024-01-07T19:29:51.964Z,1.35
2024-01-07T19:32:19.753Z,1.08
2024-01-07T19:34:46.733Z,1.70
2024-01-07T19:37:16.924Z,2.30
2024-01-07T19:39:43.915Z,2.75
2024-01-07T19:42:11.089Z,2.60
2024-01-07T19:44:39.259Z,2.85
2024-01-07T19:47:06.561Z,3.38
2024-01-07T19:49:33.867Z,3.53
2024-01-07T19:52:00.837Z,3.45
2024-01-07T19:54:27.901Z,3.50
2024-01-07T19:56:55.020Z,3.10
2024-01-07T19:59:22.421Z,3.15
2024-01-07T20:01:54.236Z,2.97
2024-01-07T20:04:21.549Z,2.55
2024-01-07T20:06:48.505Z,2.28
2024-01-07T20:09:15.771Z,4.10
2024-01-07T20:11:42.753Z,4.13
2024-01-07T20:14:11.022Z,3.78
2024-01-07T20:16:38.021Z,3.92
2024-01-07T20:19:05.119Z,5.18
2024-01-07T20:21:32.118Z,3.88
2024-01-07T20:24:00.798Z,3.85
2024-01-07T20:26:31.876Z,4.20
2024-01-07T20:29:00.558Z,3.50
2024-01-07T20:31:30.360Z,4.00
2024-01-07T20:33:58.558Z,3.80
2024-01-07T20:36:25.614Z,3.83
2024-01-07T20:38:52.661Z,4.38
2024-01-07T20:41:21.350Z,3.10
2024-01-07T20:43:48.547Z,3.15
2024-01-07T20:46:15.702Z,3.28
2024-01-07T20:48:43.031Z,3.30
2024-01-07T20:51:13.928Z,3.50
2024-01-07T20:53:41.768Z,3.58
2024-01-07T20:56:10.129Z,3.38
2024-01-07T20:58:37.453Z,3.47
2024-01-07T21:01:04.543Z,3.50
2024-01-07T21:03:31.696Z,3.63
2024-01-07T21:06:00.282Z,3.00
2024-01-07T21:08:29.868Z,2.38
2024-01-07T21:11:00.067Z,1.90
2024-01-07T21:13:27.406Z,1.73
2024-01-07T21:15:54.444Z,2.00
2024-01-07T21:18:21.605Z,1.83
2024-01-07T21:20:50.697Z,1.00
2024-01-07T21:23:19.352Z,2.38
2024-01-07T21:25:47.027Z,3.20
2024-01-07T21:28:14.953Z,3.42
2024-01-07T21:30:42.828Z,3.05
2024-01-07T21:33:09.931Z,2.92
2024-01-07T21:35:37.396Z,2.50
2024-01-07T21:38:04.682Z,2.72
2024-01-07T21:40:31.665Z,1.88
2024-01-07T21:42:58.581Z,1.80
2024-01-07T21:45:25.578Z,1.10
2024-01-07T21:47:52.580Z,1.02
2024-01-07T21:50:19.867Z,0.80
2024-01-07T21:52:56.747Z,2.20
2024-01-07T21:55:24.188Z,3.30
2024-01-07T21:57:51.478Z,3.53
2024-01-07T22:00:18.992Z,3.58
2024-01-07T22:02:46.304Z,3.35
2024-01-07T22:05:13.931Z,3.47
2024-01-07T22:07:40.959Z,3.55
2024-01-07T22:10:08.519Z,3.65
2024-01-07T22:12:35.581Z,3.60
2024-01-07T22:15:02.668Z,4.20
2024-01-07T22:17:29.833Z,3.20
2024-01-07T22:19:56.886Z,3.30
2024-01-07T22:22:24.619Z,3.10
2024-01-07T22:24:51.594Z,3.25
2024-01-07T22:27:18.513Z,3.30
2024-01-07T22:29:45.616Z,3.40
2024-01-07T22:32:12.662Z,3.45
2024-01-07T22:34:39.639Z,3.38
2024-01-07T22:37:06.661Z,3.53
2024-01-07T22:39:33.603Z,3.50
2024-01-07T22:42:00.685Z,4.00
2024-01-07T22:44:28.594Z,2.92
2024-01-07T22:46:55.607Z,2.70
2024-01-07T22:49:22.749Z,2.80
2024-01-07T22:51:51.728Z,2.95
2024-01-07T22:54:18.763Z,2.97
2024-01-07T22:56:46.769Z,3.00
2024-01-07T22:59:15.845Z,3.10
2024-01-07T23:01:43.275Z,2.58
2024-01-07T23:04:11.830Z,3.22
2024-01-07T23:06:40.597Z,3.30
2024-01-07T23:09:09.813Z,3.50
2024-01-07T23:11:37.107Z,2.70
2024-01-07T23:14:07.044Z,2.60
2024-01-07T23:16:35.212Z,3.20
2024-01-07T23:19:02.701Z,2.78
2024-01-07T23:21:30.018Z,2.60
2024-01-07T23:23:57.066Z,2.10
2024-01-07T23:26:24.121Z,2.50
2024-01-07T23:28:51.334Z,1.95
2024-01-07T23:31:18.463Z,1.73
2024-01-07T23:33:45.622Z,1.80
2024-01-07T23:36:12.811Z,1.83
2024-01-07T23:38:39.870Z,2.10
2024-01-07T23:41:07.332Z,2.00
2024-01-07T23:43:34.860Z,1.55
2024-01-07T23:46:02.622Z,2.00
2024-01-07T23:48:31.322Z,2.33
2024-01-07T23:50:58.813Z,2.20
2024-01-07T23:53:26.125Z,2.33
2024-01-07T23:55:53.480Z,2.10
2024-01-07T23:58:20.847Z,2.00
